createdAt,value
2019-02-04T00:01:58.986Z,72.20
2019-02-04T00:04:52.223Z,71.80
2019-02-04T00:07:37.339Z,70.80
2019-02-04T00:10:21.843Z,70.40
2019-02-04T00:13:06.015Z,70.50
2019-02-04T00:15:50.500Z,70.60
2019-02-04T00:18:43.566Z,71.10
2019-02-04T00:21:28.107Z,70.80
2019-02-04T00:24:13.067Z,70.50
2019-02-04T00:26:57.472Z,70.80
2019-02-04T00:29:42.603Z,70.90
2019-02-04T00:32:27.115Z,71.10
2019-02-04T00:35:20.595Z,72.30
2019-02-04T00:38:05.181Z,73.40
2019-02-04T00:40:50.486Z,73.70
2019-02-04T00:43:44.399Z,74.70
2019-02-04T00:46:38.145Z,75.40
2019-02-04T00:49:22.487Z,75.80
2019-02-04T00:52:07.591Z,75.90
2019-02-04T00:54:52.312Z,76.40
2019-02-04T00:57:36.871Z,76.70
2019-02-04T01:00:21.647Z,76.90
2019-02-04T01:03:06.269Z,76.90
2019-02-04T01:05:59.239Z,77.50
2019-02-04T01:08:43.907Z,78.10
2019-02-04T01:11:28.625Z,78.00
2019-02-04T01:14:13.723Z,78.20
2019-02-04T01:17:03.446Z,78.10
2019-02-04T01:19:44.720Z,78.30
2019-02-04T01:22:29.712Z,77.70
2019-02-04T01:25:14.299Z,77.50
2019-02-04T01:27:58.901Z,77.00
2019-02-04T01:30:43.490Z,76.50
2019-02-04T01:33:28.179Z,76.80
2019-02-04T01:36:21.539Z,77.10
2019-02-04T01:39:06.488Z,77.80
2019-02-04T01:41:51.495Z,78.40
2019-02-04T01:44:36.032Z,79.50
2019-02-04T01:47:20.855Z,79.70
2019-02-04T01:50:05.564Z,79.40
2019-02-04T01:52:50.771Z,78.70
2019-02-04T01:55:35.995Z,77.70
2019-02-04T01:58:29.000Z,76.60
2019-02-04T02:01:13.565Z,76.40
2019-02-04T02:03:58.517Z,77.50
2019-02-04T02:06:42.883Z,78.70
2019-02-04T02:09:36.011Z,79.80
2019-02-04T02:12:20.607Z,80.30
2019-02-04T02:15:05.228Z,80.90
2019-02-04T02:17:49.701Z,81.30
2019-02-04T02:20:43.579Z,82.00
2019-02-04T02:23:29.568Z,82.00
2019-02-04T02:26:14.530Z,82.20
2019-02-04T02:28:59.443Z,82.70
2019-02-04T02:31:53.800Z,82.80
2019-02-04T02:34:47.123Z,83.00
2019-02-04T02:37:32.694Z,82.90
2019-02-04T02:40:26.471Z,82.30
2019-02-04T02:43:11.839Z,82.30
2019-02-04T02:46:05.376Z,82.90
2019-02-04T02:48:50.201Z,83.70
2019-02-04T02:51:35.453Z,83.90
2019-02-04T02:54:29.186Z,84.20
2019-02-04T02:57:13.758Z,84.60
2019-02-04T02:59:59.011Z,84.60
2019-02-04T03:02:52.736Z,84.90
2019-02-04T03:05:37.456Z,85.40
2019-02-04T03:08:21.931Z,85.60
2019-02-04T03:11:06.993Z,85.70
2019-02-04T03:13:51.852Z,85.40
2019-02-04T03:16:36.972Z,85.40
2019-02-04T03:19:21.689Z,85.90
2019-02-04T03:22:07.091Z,86.20
2019-02-04T03:25:00.416Z,86.60
2019-02-04T03:27:45.368Z,87.20
2019-02-04T03:30:30.744Z,87.40
2019-02-04T03:33:24.213Z,87.30
2019-02-04T03:36:08.932Z,87.90
2019-02-04T03:38:53.435Z,88.30
2019-02-04T03:41:37.924Z,88.20
2019-02-04T03:44:22.266Z,88.30
2019-02-04T03:47:15.403Z,88.70
2019-02-04T03:49:59.763Z,89.90
2019-02-04T03:52:53.335Z,89.50
2019-02-04T03:55:37.631Z,89.50
2019-02-04T03:58:22.103Z,89.40
2019-02-04T04:01:07.328Z,89.30
2019-02-04T04:03:51.895Z,89.30
2019-02-04T04:06:36.695Z,89.60
2019-02-04T04:09:21.436Z,89.10
2019-02-04T04:12:06.163Z,89.40
2019-02-04T04:14:51.271Z,89.30
2019-02-04T04:17:34.664Z,89.40
2019-02-04T04:20:26.627Z,89.50
2019-02-04T04:23:19.767Z,90.00
2019-02-04T04:26:04.528Z,90.00
2019-02-04T04:28:49.167Z,90.10
2019-02-04T04:31:34.027Z,90.30
2019-02-04T04:34:19.556Z,90.50
2019-02-04T04:37:13.455Z,90.40
2019-02-04T04:39:58.556Z,90.30
2019-02-04T04:42:52.461Z,90.40
2019-02-04T04:45:37.068Z,90.40
2019-02-04T04:48:26.630Z,90.20
2019-02-04T04:51:07.871Z,90.20
2019-02-04T04:53:52.407Z,90.00
2019-02-04T04:56:37.612Z,89.60
2019-02-04T04:59:22.839Z,89.70
2019-02-04T05:02:07.651Z,89.70
2019-02-04T05:04:52.480Z,89.80
2019-02-04T05:07:46.827Z,90.00
2019-02-04T05:10:40.507Z,89.90
2019-02-04T05:13:25.397Z,89.80
2019-02-04T05:16:10.287Z,89.30
2019-02-04T05:18:54.931Z,88.90
2019-02-04T05:21:39.723Z,89.10
2019-02-04T05:24:24.555Z,89.20
2019-02-04T05:27:09.260Z,89.10
2019-02-04T05:29:54.311Z,89.00
2019-02-04T05:32:38.972Z,89.20
2019-02-04T05:35:23.680Z,89.70
2019-02-04T05:38:08.475Z,90.10
2019-02-04T05:40:53.304Z,90.20
2019-02-04T05:43:37.983Z,89.90
2019-02-04T05:46:22.932Z,89.40
2019-02-04T05:49:07.903Z,89.20
2019-02-04T05:51:55.079Z,88.70
2019-02-04T05:54:51.368Z,87.80
2019-02-04T05:57:45.249Z,87.70
2019-02-04T06:00:48.729Z,87.80
2019-02-04T06:03:33.383Z,87.10
2019-02-04T06:06:17.838Z,87.10
2019-02-04T06:09:11.032Z,87.30
2019-02-04T06:11:56.057Z,87.90
2019-02-04T06:14:40.831Z,88.20
2019-02-04T06:17:34.863Z,88.40
2019-02-04T06:20:19.247Z,88.10
2019-02-04T06:23:04.081Z,87.20
2019-02-04T06:25:49.048Z,87.30
2019-02-04T06:28:34.471Z,87.80
2019-02-04T06:31:28.323Z,88.20
2019-02-04T06:34:13.316Z,89.00
2019-02-04T06:36:58.883Z,89.80
2019-02-04T06:39:43.736Z,90.10
2019-02-04T06:42:28.652Z,89.50
2019-02-04T06:45:13.876Z,89.50
2019-02-04T06:47:58.779Z,88.40
2019-02-04T06:50:43.769Z,88.10
2019-02-04T06:53:28.639Z,87.60
2019-02-04T06:56:22.427Z,86.70
2019-02-04T06:59:07.936Z,85.30
2019-02-04T07:02:03.228Z,85.10
2019-02-04T07:04:56.542Z,85.50
2019-02-04T07:07:41.779Z,86.20
2019-02-04T07:10:26.869Z,86.60
2019-02-04T07:13:20.648Z,86.70
2019-02-04T07:16:04.928Z,87.00
2019-02-04T07:18:49.880Z,87.20
2019-02-04T07:21:34.499Z,87.90
2019-02-04T07:24:19.327Z,87.90
2019-02-04T07:27:04.192Z,87.70
2019-02-04T07:29:49.063Z,87.80
2019-02-04T07:32:33.803Z,87.70
2019-02-04T07:35:19.076Z,87.80
2019-02-04T07:38:04.363Z,88.20
2019-02-04T07:40:58.581Z,87.30
2019-02-04T07:43:52.081Z,87.40
2019-02-04T07:46:36.934Z,87.20
2019-02-04T07:49:21.829Z,87.00
2019-02-04T07:52:06.984Z,87.30
2019-02-04T07:55:00.579Z,87.00
2019-02-04T07:57:45.661Z,87.20
2019-02-04T08:00:30.493Z,87.00
2019-02-04T08:03:15.979Z,87.30
2019-02-04T08:06:00.686Z,87.40
2019-02-04T08:08:45.923Z,87.50
2019-02-04T08:11:30.329Z,86.30
2019-02-04T08:14:15.212Z,85.30
2019-02-04T08:16:59.852Z,84.90
2019-02-04T08:19:53.023Z,85.00
2019-02-04T08:22:38.129Z,85.20
2019-02-04T08:25:25.671Z,85.30
2019-02-04T08:28:09.497Z,85.30
2019-02-04T08:31:03.340Z,84.20
2019-02-04T08:33:48.070Z,83.80
2019-02-04T08:36:43.511Z,84.50
2019-02-04T08:39:20.193Z,82.60
2019-02-04T08:42:04.601Z,81.60
2019-02-04T08:44:58.111Z,80.30
2019-02-04T08:47:42.660Z,79.90
2019-02-04T08:50:27.910Z,78.50
2019-02-04T08:53:13.027Z,77.80
2019-02-04T08:56:07.173Z,77.40
2019-02-04T08:59:00.840Z,77.00
2019-02-04T09:01:45.699Z,76.50
2019-02-04T09:04:30.691Z,75.70
2019-02-04T09:07:24.809Z,76.00
2019-02-04T09:10:18.733Z,75.30
2019-02-04T09:13:03.143Z,75.30
2019-02-04T09:15:57.842Z,75.00
2019-02-04T09:18:51.269Z,74.50
2019-02-04T09:21:36.368Z,74.90
2019-02-04T09:24:21.387Z,74.10
2019-02-04T09:27:06.436Z,73.20
2019-02-04T09:30:00.336Z,71.30
2019-02-04T09:32:55.105Z,71.10
2019-02-04T09:35:39.908Z,69.40
2019-02-04T09:38:24.895Z,68.40
2019-02-04T09:41:09.409Z,68.80
2019-02-04T09:43:54.041Z,67.10
2019-02-04T09:46:47.812Z,65.80
2019-02-04T09:49:33.004Z,65.70
2019-02-04T09:52:18.103Z,66.00
2019-02-04T09:55:03.195Z,65.70
2019-02-04T09:57:48.484Z,66.50
2019-02-04T10:00:33.877Z,65.10
2019-02-04T10:03:27.324Z,63.60
2019-02-04T10:06:12.619Z,63.50
2019-02-04T10:09:06.631Z,64.50
2019-02-04T10:11:51.515Z,64.10
2019-02-04T10:14:45.136Z,64.50
2019-02-04T10:17:30.528Z,65.70
2019-02-04T10:20:33.438Z,65.40
2019-02-04T10:23:10.819Z,64.40
2019-02-04T10:26:04.760Z,63.10
2019-02-04T10:28:59.059Z,62.60
2019-02-04T10:31:53.569Z,61.10
2019-02-04T10:34:39.055Z,58.40
2019-02-04T10:37:24.266Z,56.40
2019-02-04T10:40:09.392Z,56.50
2019-02-04T10:43:03.221Z,51.90
2019-02-04T10:45:48.750Z,50.90
2019-02-04T10:48:33.559Z,49.70
2019-02-04T10:51:27.216Z,47.80
2019-02-04T10:54:21.236Z,47.80
2019-02-04T10:57:05.744Z,47.60
2019-02-04T10:59:51.722Z,47.70
2019-02-04T11:02:36.237Z,47.90
2019-02-04T11:05:29.522Z,47.70
2019-02-04T11:08:14.559Z,46.60
2019-02-04T11:10:59.375Z,46.00
2019-02-04T11:13:43.627Z,44.60
2019-02-04T11:16:28.303Z,45.90
2019-02-04T11:19:13.784Z,44.80
2019-02-04T11:21:58.823Z,44.10
2019-02-04T11:24:52.420Z,43.80
2019-02-04T11:27:37.619Z,43.50
2019-02-04T11:30:31.832Z,42.90
2019-02-04T11:33:25.736Z,40.70
2019-02-04T11:36:10.507Z,40.50
2019-02-04T11:39:05.244Z,40.20
2019-02-04T11:42:00.234Z,40.90
2019-02-04T11:44:45.302Z,40.30
2019-02-04T11:47:39.894Z,42.00
2019-02-04T11:50:33.311Z,43.60
2019-02-04T11:53:18.109Z,44.50
2019-02-04T11:56:12.634Z,44.40
2019-02-04T11:59:06.437Z,44.30
2019-02-04T12:02:00.345Z,44.50
2019-02-04T12:04:45.484Z,41.90
2019-02-04T12:07:31.199Z,43.30
2019-02-04T12:10:16.544Z,43.20
2019-02-04T12:13:10.324Z,42.80
2019-02-04T12:15:54.596Z,42.80
2019-02-04T12:18:39.672Z,41.90
2019-02-04T12:21:24.199Z,41.50
2019-02-04T12:23:57.450Z,39.60
2019-02-04T12:26:51.012Z,38.40
2019-02-04T12:29:36.016Z,37.20
2019-02-04T12:32:49.832Z,38.40
2019-02-04T12:35:35.323Z,39.70
2019-02-04T12:38:28.896Z,41.00
2019-02-04T12:41:13.288Z,42.80
2019-02-04T12:43:58.315Z,44.80
2019-02-04T12:46:43.464Z,45.80
2019-02-04T12:49:28.199Z,47.40
2019-02-04T12:52:12.791Z,48.10
2019-02-04T12:54:57.316Z,48.90
2019-02-04T12:57:41.539Z,49.50
2019-02-04T13:00:35.205Z,50.70
2019-02-04T13:03:29.023Z,49.30
2019-02-04T13:06:13.856Z,49.70
2019-02-04T13:08:58.863Z,47.60
2019-02-04T13:11:52.832Z,46.20
2019-02-04T13:14:37.513Z,42.60
2019-02-04T13:17:22.321Z,44.00
2019-02-04T13:20:06.983Z,45.60
2019-02-04T13:22:51.909Z,46.60
2019-02-04T13:25:37.061Z,47.30
2019-02-04T13:28:31.005Z,47.30
2019-02-04T13:31:25.119Z,48.30
2019-02-04T13:34:10.111Z,49.20
2019-02-04T13:37:03.695Z,49.20
2019-02-04T13:39:48.233Z,48.90
2019-02-04T13:42:32.720Z,49.50
2019-02-04T13:45:17.289Z,49.50
2019-02-04T13:48:10.559Z,49.80
2019-02-04T13:50:54.937Z,50.10
2019-02-04T13:53:40.138Z,49.90
2019-02-04T13:56:25.464Z,50.50
2019-02-04T13:59:39.476Z,50.60
2019-02-04T14:02:26.252Z,51.00
2019-02-04T14:05:20.277Z,51.40
2019-02-04T14:08:14.093Z,51.50
2019-02-04T14:10:58.560Z,51.60
2019-02-04T14:13:43.181Z,50.70
2019-02-04T14:16:28.388Z,49.90
2019-02-04T14:19:13.736Z,49.80
2019-02-04T14:22:09.423Z,50.50
2019-02-04T14:24:53.692Z,49.80
2019-02-04T14:27:38.534Z,50.10
2019-02-04T14:30:22.969Z,50.50
2019-02-04T14:33:08.271Z,51.10
2019-02-04T14:35:52.943Z,50.80
2019-02-04T14:38:37.468Z,50.80
2019-02-04T14:41:22.409Z,50.60
2019-02-04T14:44:07.088Z,50.60
2019-02-04T14:46:52.308Z,51.10
2019-02-04T14:49:37.009Z,51.70
2019-02-04T14:52:21.922Z,51.60
2019-02-04T14:55:07.104Z,50.90
2019-02-04T14:57:52.909Z,51.60
2019-02-04T15:00:37.875Z,50.40
2019-02-04T15:03:22.326Z,49.80
2019-02-04T15:06:07.369Z,50.60
2019-02-04T15:08:52.212Z,50.70
2019-02-04T15:11:36.960Z,50.40
2019-02-04T15:14:21.994Z,50.20
2019-02-04T15:17:06.681Z,50.50
2019-02-04T15:20:00.676Z,50.10
2019-02-04T15:22:45.684Z,50.20
2019-02-04T15:25:30.557Z,51.80
2019-02-04T15:28:14.952Z,51.90
2019-02-04T15:30:59.854Z,51.60
2019-02-04T15:33:44.613Z,50.60
2019-02-04T15:36:29.412Z,51.00
2019-02-04T15:39:14.959Z,51.20
2019-02-04T15:42:08.528Z,51.00
2019-02-04T15:44:53.388Z,50.60
2019-02-04T15:47:38.171Z,50.80
2019-02-04T15:50:22.824Z,50.80
2019-02-04T15:53:07.684Z,51.10
2019-02-04T15:55:52.981Z,51.60
2019-02-04T15:58:46.315Z,51.70
2019-02-04T16:01:30.758Z,52.00
2019-02-04T16:04:15.401Z,52.20
2019-02-04T16:07:00.256Z,52.20
2019-02-04T16:09:45.232Z,53.00
2019-02-04T16:12:30.505Z,53.40
2019-02-04T16:15:15.668Z,53.40
2019-02-04T16:18:09.821Z,53.60
2019-02-04T16:21:03.984Z,54.10
2019-02-04T16:23:58.035Z,53.80
2019-02-04T16:26:51.793Z,53.90
2019-02-04T16:29:36.596Z,53.90
2019-02-04T16:32:20.870Z,54.40
2019-02-04T16:35:05.905Z,54.30
2019-02-04T16:37:51.040Z,54.70
2019-02-04T16:40:35.836Z,55.10
2019-02-04T16:43:20.311Z,54.90
2019-02-04T16:46:05.040Z,55.20
2019-02-04T16:48:49.255Z,55.60
2019-02-04T16:51:34.254Z,55.90
2019-02-04T16:54:19.305Z,56.20
2019-02-04T16:57:04.320Z,56.40
2019-02-04T16:59:49.259Z,56.80
2019-02-04T17:02:33.825Z,57.20
2019-02-04T17:05:19.360Z,57.50
2019-02-04T17:08:13.297Z,57.80
2019-02-04T17:11:07.284Z,57.80
2019-02-04T17:14:01.145Z,58.40
2019-02-04T17:16:45.906Z,58.50
2019-02-04T17:19:30.709Z,59.00
2019-02-04T17:22:15.349Z,59.40
2019-02-04T17:25:00.031Z,59.70
2019-02-04T17:27:44.572Z,59.90
2019-02-04T17:30:29.733Z,60.00
2019-02-04T17:33:14.308Z,60.30
2019-02-04T17:35:59.528Z,60.60
2019-02-04T17:38:44.461Z,60.90
2019-02-04T17:41:29.492Z,61.30
2019-02-04T17:44:25.236Z,61.50
2019-02-04T17:47:10.246Z,61.90
2019-02-04T17:49:55.465Z,62.20
2019-02-04T17:52:54.928Z,62.40
2019-02-04T17:55:39.776Z,62.70
2019-02-04T17:58:24.527Z,63.20
2019-02-04T18:01:09.078Z,63.50
2019-02-04T18:03:54.109Z,63.40
2019-02-04T18:06:38.730Z,63.70
2019-02-04T18:09:23.700Z,64.00
2019-02-04T18:12:08.724Z,63.80
2019-02-04T18:14:53.268Z,63.80
2019-02-04T18:17:38.524Z,63.90
2019-02-04T18:20:32.001Z,64.20
2019-02-04T18:23:16.441Z,64.00
2019-02-04T18:25:59.661Z,63.60
2019-02-04T18:41:08.335Z,66.60
2019-02-04T18:44:10.752Z,66.80
2019-02-04T18:46:55.469Z,66.30
2019-02-04T18:49:49.181Z,66.20
2019-02-04T18:52:42.989Z,66.40
2019-02-04T18:55:27.627Z,66.70
2019-02-04T18:58:12.136Z,67.20
2019-02-04T19:00:56.709Z,67.80
2019-02-04T19:03:50.808Z,68.20
2019-02-04T19:06:47.693Z,68.80
2019-02-04T19:09:31.480Z,69.30
2019-02-04T19:12:25.146Z,69.80
2019-02-04T19:15:18.828Z,70.30
2019-02-04T19:18:03.681Z,70.50
2019-02-04T19:20:48.620Z,70.60
2019-02-04T19:23:33.688Z,70.50
2019-02-04T19:26:20.088Z,70.50
2019-02-04T19:29:13.912Z,70.60
2019-02-04T19:31:58.604Z,70.80
2019-02-04T19:34:43.284Z,70.50
2019-02-04T19:37:28.373Z,70.30
2019-02-04T19:40:12.952Z,70.30
2019-02-04T19:42:57.777Z,69.80
2019-02-04T19:45:42.283Z,69.20
2019-02-04T19:48:27.274Z,69.30
2019-02-04T19:51:12.429Z,69.00
2019-02-04T19:53:57.475Z,68.90
2019-02-04T19:56:51.245Z,69.30
2019-02-04T19:59:45.553Z,68.70
2019-02-04T20:02:39.298Z,68.00
2019-02-04T20:05:24.128Z,68.10
2019-02-04T20:08:09.168Z,68.40
2019-02-04T20:10:54.645Z,68.50
2019-02-04T20:13:38.936Z,68.10
2019-02-04T20:16:32.577Z,67.80
2019-02-04T20:19:19.004Z,68.00
2019-02-04T20:22:03.952Z,68.20
2019-02-04T20:24:49.163Z,68.60
2019-02-04T20:27:43.067Z,69.20
2019-02-04T20:30:28.683Z,69.10
2019-02-04T20:33:13.762Z,69.10
2019-02-04T20:35:58.690Z,68.90
2019-02-04T20:38:45.176Z,68.20
2019-02-04T20:41:29.680Z,68.20
2019-02-04T20:44:14.319Z,67.40
2019-02-04T20:46:59.192Z,66.80
2019-02-04T20:49:44.117Z,66.30
2019-02-04T20:52:29.636Z,66.00
2019-02-04T20:55:14.464Z,66.80
2019-02-04T20:58:02.470Z,68.00
2019-02-04T21:00:56.345Z,69.40
2019-02-04T21:03:41.130Z,70.20
2019-02-04T21:06:27.081Z,70.70
2019-02-04T21:09:12.188Z,71.20
2019-02-04T21:11:57.193Z,71.00
2019-02-04T21:14:42.065Z,71.20
2019-02-04T21:17:26.820Z,71.50
2019-02-04T21:20:12.316Z,71.80
2019-02-04T21:23:07.464Z,72.00
2019-02-04T21:26:01.655Z,71.80
2019-02-04T21:28:55.708Z,72.00
2019-02-04T21:31:49.928Z,72.60
2019-02-04T21:34:44.043Z,72.70
2019-02-04T21:37:37.824Z,73.00
2019-02-04T21:40:23.108Z,73.50
2019-02-04T21:43:16.692Z,73.70
2019-02-04T21:46:01.376Z,73.10
2019-02-04T21:48:56.349Z,71.80
2019-02-04T21:51:41.368Z,70.40
2019-02-04T21:54:25.850Z,69.70
2019-02-04T21:57:19.326Z,69.10
2019-02-04T22:00:04.961Z,69.00
2019-02-04T22:02:50.357Z,68.40
2019-02-04T22:05:35.173Z,69.20
2019-02-04T22:08:20.472Z,69.40
2019-02-04T22:11:14.465Z,70.00
2019-02-04T22:14:08.289Z,69.60
2019-02-04T22:16:54.212Z,68.70
2019-02-04T22:19:39.702Z,68.10
2019-02-04T22:22:24.564Z,68.00
2019-02-04T22:25:19.726Z,68.70
2019-02-04T22:28:14.848Z,68.00
2019-02-04T22:30:59.923Z,67.40
2019-02-04T22:33:44.646Z,67.00
2019-02-04T22:36:29.780Z,66.40
2019-02-04T22:39:15.244Z,66.60
2019-02-04T22:42:09.072Z,67.90
2019-02-04T22:44:54.108Z,69.30
2019-02-04T22:47:48.493Z,70.30
2019-02-04T22:50:42.256Z,71.10
2019-02-04T22:53:26.555Z,71.60
2019-02-04T22:56:11.619Z,71.30
2019-02-04T22:59:05.581Z,71.30
2019-02-04T23:01:50.754Z,71.70
2019-02-04T23:04:44.609Z,71.40
2019-02-04T23:07:29.942Z,71.70
2019-02-04T23:10:27.163Z,70.60
2019-02-04T23:13:20.979Z,69.50
2019-02-04T23:16:15.062Z,69.50
2019-02-04T23:19:09.253Z,69.30
2019-02-04T23:22:02.929Z,69.40
2019-02-04T23:24:47.657Z,69.60
2019-02-04T23:27:33.124Z,70.00
2019-02-04T23:30:26.776Z,70.10
2019-02-04T23:33:11.309Z,69.40
2019-02-04T23:35:56.076Z,69.80
2019-02-04T23:38:41.156Z,69.40
2019-02-04T23:41:26.273Z,69.60
2019-02-04T23:44:20.188Z,70.80
2019-02-04T23:47:13.928Z,69.50
2019-02-04T23:49:58.700Z,69.30
2019-02-04T23:52:43.584Z,69.20
2019-02-04T23:55:27.877Z,70.10
2019-02-04T23:58:12.989Z,70.40
